Terminal Aerodrome Forecast
Issued by NWS

Home | Current Version | Previous Version | Text Only | Print | Product List | Glossary On
Versions: 1 2 3 4 5 6 7 8 9 10 11 12 13 14 15 16 17 18 19 20 21 22 23 24 25 26 27 28 29 30
000
FTUS41 KOKX 182346
TAFTEB
TAF
KTEB 182346Z 1900/1924 19009KT 5SM BR SCT015 BKN040
      TEMPO 1900/1901 2SM TSRA BKN015CB
     FM190200 21008KT 6SM BR SCT009 BKN025
      TEMPO 1902/1906 BKN015
     FM190600 26005KT 6SM BR SCT025 OVC050
      TEMPO 1906/1909 BKN025
     FM191100 31006KT P6SM BKN050
     FM191500 28006KT P6SM SCT025 BKN050
     FM191800 25008KT P6SM SCT040=

USA.gov is the U.S. government's official web portal to all federal, state and local government web resources and services.